createdAt,value
2024-03-01T00:00:18.353Z,91.179167
2024-03-01T00:05:18.567Z,91.258333
2024-03-01T00:10:18.388Z,91.283333
2024-03-01T00:15:18.076Z,91.537500
2024-03-01T00:20:18.259Z,91.666667
2024-03-01T00:25:18.850Z,91.369231
2024-03-01T00:30:18.635Z,91.366667
2024-03-01T00:35:18.572Z,91.520833
2024-03-01T00:40:18.417Z,91.345833
2024-03-01T00:45:19.044Z,91.500000
2024-03-01T00:50:19.091Z,91.383333
2024-03-01T00:55:19.704Z,91.400000
2024-03-01T01:00:18.117Z,91.500000
2024-03-01T01:05:18.401Z,91.676000
2024-03-01T01:10:21.247Z,91.929167
2024-03-01T01:15:19.026Z,91.912500
2024-03-01T01:20:18.459Z,91.883333
2024-03-01T01:25:18.433Z,91.775000
2024-03-01T01:30:19.137Z,91.512500
2024-03-01T01:35:19.020Z,91.583333
2024-03-01T01:40:19.101Z,91.479167
2024-03-01T01:45:18.312Z,91.662500
2024-03-01T01:50:18.684Z,91.816667
2024-03-01T01:55:18.241Z,91.795833
2024-03-01T02:00:18.169Z,91.884000
2024-03-01T02:05:18.587Z,91.791667
2024-03-01T02:10:18.908Z,91.825000
2024-03-01T02:15:18.533Z,91.695833
2024-03-01T02:20:17.888Z,91.937500
2024-03-01T02:25:18.323Z,91.932000
2024-03-01T02:30:19.289Z,91.920833
2024-03-01T02:35:19.092Z,91.900000
2024-03-01T02:40:18.136Z,91.862500
2024-03-01T02:45:17.948Z,91.900000
2024-03-01T02:50:19.322Z,91.680000
2024-03-01T02:55:19.068Z,91.808333
2024-03-01T03:00:18.403Z,91.850000
2024-03-01T03:05:18.887Z,91.687500
2024-03-01T03:10:19.864Z,91.979167
2024-03-01T03:15:18.130Z,91.941667
2024-03-01T03:20:19.548Z,92.108333
2024-03-01T03:25:19.029Z,92.166667
2024-03-01T03:30:20.155Z,91.991667
2024-03-01T03:35:18.882Z,91.716667
2024-03-01T03:40:18.595Z,91.950000
2024-03-01T03:45:20.281Z,91.908333
2024-03-01T03:50:18.663Z,91.825000
2024-03-01T03:55:18.440Z,91.750000
2024-03-01T04:00:18.585Z,92.025000
2024-03-01T04:05:18.205Z,92.079167
2024-03-01T04:10:18.014Z,92.033333
2024-03-01T04:15:18.421Z,92.158333
2024-03-01T04:20:17.979Z,92.008333
2024-03-01T04:25:17.943Z,91.908333
2024-03-01T04:30:19.136Z,92.056000
2024-03-01T04:35:18.796Z,92.070833
2024-03-01T04:40:20.806Z,92.216000
2024-03-01T04:45:18.793Z,92.233333
2024-03-01T04:50:18.657Z,92.295833
2024-03-01T04:55:17.932Z,92.275000
2024-03-01T05:00:18.186Z,92.204000
2024-03-01T05:05:18.145Z,92.120833
2024-03-01T05:10:18.800Z,91.932000
2024-03-01T05:15:17.937Z,91.933333
2024-03-01T05:20:18.289Z,92.048000
2024-03-01T05:25:19.419Z,92.100000
2024-03-01T05:30:27.379Z,92.154167
2024-03-01T05:35:18.314Z,92.124000
2024-03-01T05:40:19.343Z,91.962500
2024-03-01T05:45:18.657Z,91.825000
2024-03-01T05:50:18.267Z,92.150000
2024-03-01T05:55:18.176Z,92.280000
2024-03-01T06:00:18.573Z,92.275000
2024-03-01T06:05:18.725Z,92.158333
2024-03-01T06:10:19.247Z,92.175000
2024-03-01T06:15:17.954Z,92.133333
2024-03-01T06:20:18.340Z,92.132000
2024-03-01T06:25:19.868Z,92.216667
2024-03-01T06:30:17.723Z,92.333333
2024-03-01T06:35:18.306Z,92.368000
2024-03-01T06:40:18.445Z,92.366667
2024-03-01T06:45:18.129Z,92.229167
2024-03-01T06:50:18.643Z,92.229167
2024-03-01T06:55:18.559Z,92.325000
2024-03-01T07:00:18.208Z,92.233333
2024-03-01T07:05:18.036Z,92.400000
2024-03-01T07:10:18.053Z,92.312000
2024-03-01T07:15:18.045Z,92.464000
2024-03-01T07:20:18.166Z,92.475000
2024-03-01T07:25:18.516Z,92.600000
2024-03-01T07:30:19.049Z,92.566667
2024-03-01T07:35:18.879Z,92.525000
2024-03-01T07:40:18.956Z,92.620833
2024-03-01T07:45:18.337Z,92.588000
2024-03-01T07:50:18.718Z,92.500000
2024-03-01T07:55:18.240Z,92.587500
2024-03-01T08:00:18.678Z,92.520833
2024-03-01T08:05:18.340Z,92.708333
2024-03-01T08:10:19.002Z,92.816667
2024-03-01T08:15:17.798Z,92.912500
2024-03-01T08:20:18.377Z,92.880000
2024-03-01T08:25:18.081Z,92.900000
2024-03-01T08:30:18.257Z,92.888000
2024-03-01T08:35:18.238Z,92.775000
2024-03-01T08:40:18.296Z,92.783333
2024-03-01T08:45:17.865Z,92.616667
2024-03-01T08:50:18.519Z,92.516000
2024-03-01T08:55:18.421Z,92.637500
2024-03-01T09:00:17.959Z,92.708333
2024-03-01T09:05:18.232Z,92.800000
2024-03-01T09:10:18.465Z,92.650000
2024-03-01T09:15:18.155Z,92.650000
2024-03-01T09:20:18.242Z,92.496000
2024-03-01T09:25:18.047Z,91.488000
2024-03-01T09:30:18.581Z,90.852000
2024-03-01T09:35:18.018Z,90.354167
2024-03-01T09:40:18.224Z,89.708333
2024-03-01T09:45:18.439Z,89.079167
2024-03-01T09:50:18.511Z,88.366667
2024-03-01T09:55:18.487Z,87.891667
2024-03-01T10:00:18.174Z,87.662500
2024-03-01T10:05:20.037Z,86.250000
2024-03-01T10:10:18.390Z,84.664000
2024-03-01T10:15:18.457Z,83.966667
2024-03-01T10:20:18.740Z,82.925000
2024-03-01T10:25:18.348Z,82.733333
2024-03-01T10:30:17.940Z,82.566667
2024-03-01T10:35:18.454Z,82.637500
2024-03-01T10:40:19.680Z,82.116667
2024-03-01T10:45:17.971Z,81.784000
2024-03-01T10:50:18.370Z,81.192000
2024-03-01T10:55:18.374Z,81.372000
2024-03-01T11:00:18.262Z,80.950000
2024-03-01T11:05:18.056Z,80.583333
2024-03-01T11:10:18.085Z,80.660000
2024-03-01T11:15:18.087Z,80.364000
2024-03-01T11:20:18.067Z,80.250000
2024-03-01T11:25:18.534Z,80.266667
2024-03-01T11:30:18.282Z,79.700000
2024-03-01T11:35:18.343Z,79.475000
2024-03-01T11:40:18.481Z,78.637500
2024-03-01T11:45:19.637Z,79.587500
2024-03-01T11:50:18.172Z,79.691667
2024-03-01T11:55:18.321Z,78.254167
2024-03-01T12:00:17.867Z,78.137500
2024-03-01T12:05:18.487Z,77.354167
2024-03-01T12:10:17.995Z,78.004167
2024-03-01T12:15:18.242Z,77.804000
2024-03-01T12:20:18.018Z,78.058333
2024-03-01T12:25:18.728Z,78.170833
2024-03-01T12:30:18.562Z,78.204167
2024-03-01T12:35:18.252Z,77.300000
2024-03-01T12:40:19.251Z,77.316667
2024-03-01T12:45:18.246Z,77.212500
2024-03-01T12:50:18.535Z,77.356000
2024-03-01T12:55:19.143Z,77.745833
2024-03-01T13:00:17.853Z,76.612500
2024-03-01T13:05:18.635Z,76.380000
2024-03-01T13:10:18.102Z,76.104167
2024-03-01T13:15:19.170Z,77.084000
2024-03-01T13:20:19.661Z,76.454167
2024-03-01T13:25:18.365Z,77.162500
2024-03-01T13:30:18.203Z,76.804167
2024-03-01T13:35:17.820Z,75.529167
2024-03-01T13:40:18.991Z,75.683333
2024-03-01T13:45:17.620Z,74.612500
2024-03-01T13:50:18.459Z,75.000000
2024-03-01T13:55:18.578Z,75.300000
2024-03-01T14:00:20.062Z,74.912500
2024-03-01T14:05:18.331Z,75.454167
2024-03-01T14:10:18.563Z,74.800000
2024-03-01T14:15:20.950Z,74.604167
2024-03-01T14:20:20.543Z,75.225000
2024-03-01T14:25:20.934Z,76.241667
2024-03-01T14:30:21.044Z,76.237500
2024-03-01T14:35:21.238Z,76.237500
2024-03-01T14:40:20.442Z,76.120833
2024-03-01T14:45:20.625Z,75.479167
2024-03-01T14:50:20.885Z,75.841667
2024-03-01T14:55:21.130Z,79.283333
2024-03-01T15:00:21.282Z,80.716667
2024-03-01T15:05:20.658Z,79.200000
2024-03-01T15:10:20.660Z,78.991667
2024-03-01T15:15:21.022Z,80.991667
2024-03-01T15:20:20.635Z,82.537500
2024-03-01T15:25:20.560Z,83.141667
2024-03-01T15:30:20.095Z,82.779167
2024-03-01T15:35:21.693Z,83.740000
2024-03-01T15:40:20.126Z,84.395833
2024-03-01T15:45:20.650Z,85.779167
2024-03-01T15:50:20.533Z,86.462500
2024-03-01T15:55:20.421Z,86.120833
2024-03-01T16:00:20.432Z,85.400000
2024-03-01T16:05:19.975Z,85.784000
2024-03-01T16:10:21.081Z,85.820833
2024-03-01T16:15:20.299Z,85.612000
2024-03-01T16:20:20.567Z,85.141667
2024-03-01T16:25:20.479Z,84.984000
2024-03-01T16:30:21.149Z,84.683333
2024-03-01T16:35:20.722Z,85.770833
2024-03-01T16:40:21.027Z,86.633333
2024-03-01T16:45:20.332Z,87.091667
2024-03-01T16:50:20.623Z,87.741667
2024-03-01T16:55:20.717Z,87.492000
2024-03-01T17:00:20.069Z,87.736000
2024-03-01T17:05:20.058Z,87.250000
2024-03-01T17:10:20.129Z,87.820833
2024-03-01T17:15:20.069Z,87.933333
2024-03-01T17:20:18.018Z,88.454167
2024-03-01T17:25:17.909Z,87.975000
2024-03-01T17:30:17.932Z,87.992000
2024-03-01T17:35:18.444Z,88.558333
2024-03-01T17:40:18.129Z,88.550000
2024-03-01T17:45:18.471Z,88.804167
2024-03-01T17:50:18.023Z,88.683333
2024-03-01T17:55:18.824Z,87.954167
2024-03-01T18:05:18.668Z,88.866667
2024-03-01T18:10:18.977Z,88.883333
2024-03-01T18:15:18.046Z,88.450000
2024-03-01T18:20:21.355Z,88.695833
2024-03-01T18:25:19.018Z,89.233333
2024-03-01T18:30:18.357Z,89.541667
2024-03-01T18:35:18.771Z,89.316667
2024-03-01T18:40:17.931Z,89.100000
2024-03-01T18:45:19.225Z,89.352000
2024-03-01T18:50:18.255Z,90.004167
2024-03-01T18:55:19.832Z,89.696000
2024-03-01T19:00:18.689Z,90.070833
2024-03-01T19:05:18.512Z,90.250000
2024-03-01T19:10:18.388Z,90.270833
2024-03-01T19:15:17.976Z,90.850000
2024-03-01T19:20:17.939Z,90.400000
2024-03-01T19:25:18.993Z,90.425000
2024-03-01T19:30:18.469Z,90.783333
2024-03-01T19:35:18.330Z,90.987500
2024-03-01T19:40:18.411Z,90.566667
2024-03-01T19:45:18.033Z,90.629167
2024-03-01T19:50:18.494Z,90.973684
2024-03-01T19:55:18.337Z,90.525000
2024-03-01T20:00:18.057Z,91.095833
2024-03-01T20:05:18.181Z,91.200000
2024-03-01T20:10:18.396Z,91.083333
2024-03-01T20:15:17.881Z,91.162500
2024-03-01T20:20:18.186Z,91.070833
2024-03-01T20:25:17.807Z,91.141667
2024-03-01T20:30:19.770Z,91.300000
2024-03-01T20:35:17.765Z,91.395833
2024-03-01T20:40:17.835Z,91.483333
2024-03-01T20:45:17.999Z,91.425000
2024-03-01T20:50:18.047Z,91.565000
2024-03-01T20:55:19.351Z,91.433333
2024-03-01T21:00:17.726Z,91.300000
2024-03-01T21:05:18.240Z,91.300000
2024-03-01T21:10:20.299Z,91.300000
2024-03-01T21:15:20.549Z,91.316667
2024-03-01T21:20:20.918Z,91.425000
2024-03-01T21:25:20.376Z,91.458333
2024-03-01T21:30:19.912Z,91.500000
2024-03-01T21:35:20.469Z,91.500000
2024-03-01T21:40:20.981Z,91.408333
2024-03-01T21:45:20.231Z,91.300000
2024-03-01T21:50:20.559Z,91.250000
2024-03-01T21:55:20.544Z,91.287500
2024-03-01T22:00:20.307Z,91.236000
2024-03-01T22:05:20.433Z,91.200000
2024-03-01T22:10:20.137Z,91.141667
2024-03-01T22:15:20.192Z,91.116000
2024-03-01T22:20:19.992Z,91.248000
2024-03-01T22:25:20.482Z,91.245833
2024-03-01T22:30:20.357Z,91.300000
2024-03-01T22:35:20.405Z,91.258333
2024-03-01T22:40:20.330Z,91.233333
2024-03-01T22:45:20.477Z,91.312500
2024-03-01T22:50:20.338Z,91.400000
2024-03-01T22:55:20.075Z,91.400000
2024-03-01T23:00:21.145Z,91.366667
2024-03-01T23:05:20.762Z,91.429167
2024-03-01T23:10:20.392Z,91.500000
2024-03-01T23:15:20.870Z,91.500000
2024-03-01T23:20:20.800Z,91.536000
2024-03-01T23:25:20.745Z,91.550000
2024-03-01T23:30:20.403Z,91.600000
2024-03-01T23:35:19.923Z,91.684000
2024-03-01T23:40:20.108Z,91.683333
2024-03-01T23:45:20.483Z,91.708000
2024-03-01T23:50:20.655Z,91.872000
2024-03-01T23:55:20.321Z,91.691667
